sensor_id;sensor_type;location;lat;lon;timestamp;pressure;altitude;pressure_sealevel;temperature;humidity
77939;BME280;67136;47.546;21.630;2024-03-25T00:00:40;98960.78;;;2.66;100.00
77939;BME280;67136;47.546;21.630;2024-03-25T00:03:42;98952.66;;;2.59;100.00
77939;BME280;67136;47.546;21.630;2024-03-25T00:06:43;98961.28;;;2.47;100.00
77939;BME280;67136;47.546;21.630;2024-03-25T00:09:48;98957.72;;;2.61;100.00
77939;BME280;67136;47.546;21.630;2024-03-25T00:12:49;98954.38;;;2.47;100.00
77939;BME280;67136;47.546;21.630;2024-03-25T00:15:54;98948.78;;;2.30;100.00
77939;BME280;67136;47.546;21.630;2024-03-25T00:18:55;98946.84;;;2.44;100.00
77939;BME280;67136;47.546;21.630;2024-03-25T00:21:57;98940.84;;;2.57;100.00
77939;BME280;67136;47.546;21.630;2024-03-25T00:25:02;98943.34;;;2.45;100.00
77939;BME280;67136;47.546;21.630;2024-03-25T00:28:04;98942.53;;;2.45;100.00
77939;BME280;67136;47.546;21.630;2024-03-25T00:31:05;98946.84;;;2.44;100.00
77939;BME280;67136;47.546;21.630;2024-03-25T00:34:07;98944.41;;;2.30;100.00
77939;BME280;67136;47.546;21.630;2024-03-25T00:37:09;98944.91;;;2.35;100.00
77939;BME280;67136;47.546;21.630;2024-03-25T00:40:11;98939.06;;;2.33;100.00
77939;BME280;67136;47.546;21.630;2024-03-25T00:43:13;98937.00;;;2.38;100.00
77939;BME280;67136;47.546;21.630;2024-03-25T00:46:14;98932.53;;;2.40;100.00
77939;BME280;67136;47.546;21.630;2024-03-25T00:49:16;98931.44;;;2.55;100.00
77939;BME280;67136;47.546;21.630;2024-03-25T00:52:17;98926.72;;;2.49;100.00
77939;BME280;67136;47.546;21.630;2024-03-25T00:55:22;98928.75;;;2.57;100.00
77939;BME280;67136;47.546;21.630;2024-03-25T00:58:23;98926.94;;;2.46;100.00
77939;BME280;67136;47.546;21.630;2024-03-25T01:01:31;98920.63;;;2.50;100.00
77939;BME280;67136;47.546;21.630;2024-03-25T01:04:35;98924.66;;;2.42;100.00
77939;BME280;67136;47.546;21.630;2024-03-25T01:07:37;98921.72;;;2.35;100.00
77939;BME280;67136;47.546;21.630;2024-03-25T01:10:38;98919.63;;;2.40;100.00
77939;BME280;67136;47.546;21.630;2024-03-25T01:13:41;98919.81;;;2.26;100.00
77939;BME280;67136;47.546;21.630;2024-03-25T01:16:45;98921.53;;;2.38;100.00
77939;BME280;67136;47.546;21.630;2024-03-25T01:19:46;98920.22;;;2.20;100.00
77939;BME280;67136;47.546;21.630;2024-03-25T01:22:51;98912.19;;;2.12;100.00
77939;BME280;67136;47.546;21.630;2024-03-25T01:25:53;98915.62;;;2.00;100.00
77939;BME280;67136;47.546;21.630;2024-03-25T01:28:54;98909.06;;;1.96;100.00
77939;BME280;67136;47.546;21.630;2024-03-25T01:31:56;98910.47;;;2.13;100.00
77939;BME280;67136;47.546;21.630;2024-03-25T01:35:00;98903.47;;;2.02;100.00
77939;BME280;67136;47.546;21.630;2024-03-25T01:38:01;98908.84;;;1.99;100.00
77939;BME280;67136;47.546;21.630;2024-03-25T01:41:09;98912.34;;;1.98;100.00
77939;BME280;67136;47.546;21.630;2024-03-25T01:44:16;98914.34;;;1.82;100.00
77939;BME280;67136;47.546;21.630;2024-03-25T01:47:18;98910.53;;;1.88;100.00
77939;BME280;67136;47.546;21.630;2024-03-25T01:50:20;98907.00;;;1.89;100.00
77939;BME280;67136;47.546;21.630;2024-03-25T01:53:23;98903.69;;;1.99;100.00
77939;BME280;67136;47.546;21.630;2024-03-25T01:56:26;98903.50;;;1.90;100.00
77939;BME280;67136;47.546;21.630;2024-03-25T01:59:30;98904.13;;;1.81;100.00
77939;BME280;67136;47.546;21.630;2024-03-25T02:02:32;98905.97;;;1.91;100.00
77939;BME280;67136;47.546;21.630;2024-03-25T02:05:36;98906.91;;;1.90;100.00
77939;BME280;67136;47.546;21.630;2024-03-25T02:08:39;98905.59;;;1.85;100.00
77939;BME280;67136;47.546;21.630;2024-03-25T02:11:44;98903.22;;;1.69;100.00
77939;BME280;67136;47.546;21.630;2024-03-25T02:14:50;98912.59;;;1.70;100.00
77939;BME280;67136;47.546;21.630;2024-03-25T02:17:52;98909.50;;;1.65;100.00
77939;BME280;67136;47.546;21.630;2024-03-25T02:20:53;98904.88;;;1.70;100.00
77939;BME280;67136;47.546;21.630;2024-03-25T02:23:56;98904.03;;;1.82;100.00
77939;BME280;67136;47.546;21.630;2024-03-25T02:27:00;98905.59;;;1.72;100.00
77939;BME280;67136;47.546;21.630;2024-03-25T02:30:06;98913.94;;;1.63;100.00
77939;BME280;67136;47.546;21.630;2024-03-25T02:33:08;98910.03;;;1.70;100.00
77939;BME280;67136;47.546;21.630;2024-03-25T02:36:10;98903.97;;;1.59;100.00
77939;BME280;67136;47.546;21.630;2024-03-25T02:39:11;98900.88;;;1.66;100.00
77939;BME280;67136;47.546;21.630;2024-03-25T02:42:13;98903.84;;;1.60;100.00
77939;BME280;67136;47.546;21.630;2024-03-25T02:45:15;98903.03;;;1.47;100.00
77939;BME280;67136;47.546;21.630;2024-03-25T02:48:17;98910.03;;;1.70;100.00
77939;BME280;67136;47.546;21.630;2024-03-25T02:51:18;98900.66;;;1.57;100.00
77939;BME280;67136;47.546;21.630;2024-03-25T02:54:20;98901.91;;;1.64;100.00
77939;BME280;67136;47.546;21.630;2024-03-25T02:57:22;98906.47;;;1.48;100.00
77939;BME280;67136;47.546;21.630;2024-03-25T03:00:24;98899.16;;;1.29;100.00
77939;BME280;67136;47.546;21.630;2024-03-25T03:03:25;98902.31;;;1.45;100.00
77939;BME280;67136;47.546;21.630;2024-03-25T03:06:30;98908.28;;;1.33;100.00
77939;BME280;67136;47.546;21.630;2024-03-25T03:09:34;98902.03;;;1.37;100.00
77939;BME280;67136;47.546;21.630;2024-03-25T03:12:38;98903.13;;;1.33;100.00
77939;BME280;67136;47.546;21.630;2024-03-25T03:15:44;98906.75;;;1.43;100.00
77939;BME280;67136;47.546;21.630;2024-03-25T03:18:46;98907.59;;;1.31;100.00
77939;BME280;67136;47.546;21.630;2024-03-25T03:21:47;98900.88;;;1.16;100.00
77939;BME280;67136;47.546;21.630;2024-03-25T03:24:52;98905.41;;;1.25;100.00
77939;BME280;67136;47.546;21.630;2024-03-25T03:27:53;98890.56;;;1.16;100.00
77939;BME280;67136;47.546;21.630;2024-03-25T03:30:55;98909.72;;;1.24;100.00
77939;BME280;67136;47.546;21.630;2024-03-25T03:33:57;98915.72;;;1.12;100.00
77939;BME280;67136;47.546;21.630;2024-03-25T03:36:58;98913.97;;;1.25;100.00
77939;BME280;67136;47.546;21.630;2024-03-25T03:40:00;98914.25;;;1.21;100.00
77939;BME280;67136;47.546;21.630;2024-03-25T03:43:01;98913.13;;;1.25;100.00
77939;BME280;67136;47.546;21.630;2024-03-25T03:46:03;98914.06;;;1.24;100.00
77939;BME280;67136;47.546;21.630;2024-03-25T03:49:05;98914.88;;;1.12;100.00
77939;BME280;67136;47.546;21.630;2024-03-25T03:52:10;98919.41;;;1.21;100.00
77939;BME280;67136;47.546;21.630;2024-03-25T03:55:12;98917.56;;;1.23;100.00
77939;BME280;67136;47.546;21.630;2024-03-25T03:58:13;98918.56;;;1.08;100.00
77939;BME280;67136;47.546;21.630;2024-03-25T04:01:18;98922.91;;;1.07;100.00
77939;BME280;67136;47.546;21.630;2024-03-25T04:04:20;98917.53;;;0.98;100.00
77939;BME280;67136;47.546;21.630;2024-03-25T04:07:21;98925.97;;;1.00;100.00
77939;BME280;67136;47.546;21.630;2024-03-25T04:10:28;98927.31;;;0.93;100.00
77939;BME280;67136;47.546;21.630;2024-03-25T04:13:35;98929.66;;;0.96;100.00
77939;BME280;67136;47.546;21.630;2024-03-25T04:16:36;98931.72;;;0.91;100.00
77939;BME280;67136;47.546;21.630;2024-03-25T04:19:38;98936.16;;;0.89;100.00
77939;BME280;67136;47.546;21.630;2024-03-25T04:22:43;98934.47;;;0.75;100.00
77939;BME280;67136;47.546;21.630;2024-03-25T04:25:44;98933.75;;;0.86;100.00
77939;BME280;67136;47.546;21.630;2024-03-25T04:28:49;98939.09;;;0.83;100.00
77939;BME280;67136;47.546;21.630;2024-03-25T04:31:51;98940.56;;;0.87;100.00
77939;BME280;67136;47.546;21.630;2024-03-25T04:34:52;98941.34;;;0.75;100.00
77939;BME280;67136;47.546;21.630;2024-03-25T04:37:54;98944.16;;;0.84;100.00
77939;BME280;67136;47.546;21.630;2024-03-25T04:40:58;98946.97;;;0.94;100.00
77939;BME280;67136;47.546;21.630;2024-03-25T04:43:59;98943.25;;;0.85;100.00
77939;BME280;67136;47.546;21.630;2024-03-25T04:47:01;98945.50;;;0.90;100.00
77939;BME280;67136;47.546;21.630;2024-03-25T04:50:03;98946.16;;;0.93;100.00
77939;BME280;67136;47.546;21.630;2024-03-25T04:53:08;98941.41;;;0.87;100.00
77939;BME280;67136;47.546;21.630;2024-03-25T04:56:09;98950.25;;;0.96;100.00
77939;BME280;67136;47.546;21.630;2024-03-25T04:59:11;98942.16;;;1.02;100.00
77939;BME280;67136;47.546;21.630;2024-03-25T05:02:12;98944.97;;;1.24;100.00
77939;BME280;67136;47.546;21.630;2024-03-25T05:05:15;98949.47;;;1.33;100.00
77939;BME280;67136;47.546;21.630;2024-03-25T05:08:16;98950.94;;;1.37;100.00
77939;BME280;67136;47.546;21.630;2024-03-25T05:11:18;98961.25;;;1.37;100.00
77939;BME280;67136;47.546;21.630;2024-03-25T05:14:19;98965.56;;;1.49;100.00
77939;BME280;67136;47.546;21.630;2024-03-25T05:17:21;98964.75;;;1.61;100.00
77939;BME280;67136;47.546;21.630;2024-03-25T05:20:23;98962.69;;;1.66;100.00
77939;BME280;67136;47.546;21.630;2024-03-25T05:23:24;98961.22;;;1.87;100.00
77939;BME280;67136;47.546;21.630;2024-03-25T05:26:26;98963.97;;;2.09;100.00
77939;BME280;67136;47.546;21.630;2024-03-25T05:29:28;98948.78;;;2.30;100.00
77939;BME280;67136;47.546;21.630;2024-03-25T05:32:29;98961.59;;;2.55;100.00
77939;BME280;67136;47.546;21.630;2024-03-25T05:35:31;98969.44;;;2.77;100.00
77939;BME280;67136;47.546;21.630;2024-03-25T05:38:35;98965.34;;;2.86;100.00
77939;BME280;67136;47.546;21.630;2024-03-25T05:41:36;98969.91;;;3.06;100.00
77939;BME280;67136;47.546;21.630;2024-03-25T05:44:38;98978.88;;;3.24;100.00
77939;BME280;67136;47.546;21.630;2024-03-25T05:47:39;98993.00;;;3.31;100.00
77939;BME280;67136;47.546;21.630;2024-03-25T05:50:41;98991.59;;;3.38;100.00
77939;BME280;67136;47.546;21.630;2024-03-25T05:53:43;98990.19;;;3.34;100.00
77939;BME280;67136;47.546;21.630;2024-03-25T05:56:44;99001.91;;;3.27;100.00
77939;BME280;67136;47.546;21.630;2024-03-25T05:59:46;99000.66;;;3.09;100.00
77939;BME280;67136;47.546;21.630;2024-03-25T06:02:48;98999.53;;;3.24;100.00
77939;BME280;67136;47.546;21.630;2024-03-25T06:05:49;99016.16;;;3.43;100.00
77939;BME280;67136;47.546;21.630;2024-03-25T06:08:51;99016.56;;;3.72;100.00
77939;BME280;67136;47.546;21.630;2024-03-25T06:11:52;99019.78;;;3.98;100.00
77939;BME280;67136;47.546;21.630;2024-03-25T06:14:54;99024.94;;;4.09;100.00
77939;BME280;67136;47.546;21.630;2024-03-25T06:17:56;99023.75;;;4.02;100.00
77939;BME280;67136;47.546;21.630;2024-03-25T06:20:57;99022.38;;;4.31;99.29
77939;BME280;67136;47.546;21.630;2024-03-25T06:23:59;99030.91;;;4.75;97.96
77939;BME280;67136;47.546;21.630;2024-03-25T06:27:01;99032.31;;;5.11;95.44
77939;BME280;67136;47.546;21.630;2024-03-25T06:30:03;99043.31;;;5.03;94.71
77939;BME280;67136;47.546;21.630;2024-03-25T06:33:24;99052.56;;;5.49;93.21
77939;BME280;67136;47.546;21.630;2024-03-25T06:36:44;99055.13;;;6.01;89.32
77939;BME280;67136;47.546;21.630;2024-03-25T06:39:46;99040.78;;;6.27;88.14
77939;BME280;67136;47.546;21.630;2024-03-25T06:42:48;99055.41;;;6.68;87.30
77939;BME280;67136;47.546;21.630;2024-03-25T06:45:52;99053.25;;;6.82;85.50
77939;BME280;67136;47.546;21.630;2024-03-25T06:48:54;99059.56;;;6.89;84.51
77939;BME280;67136;47.546;21.630;2024-03-25T06:51:56;99057.38;;;6.94;84.47
77939;BME280;67136;47.546;21.630;2024-03-25T06:54:58;99055.28;;;7.37;82.64
77939;BME280;67136;47.546;21.630;2024-03-25T06:58:00;99069.22;;;7.65;80.75
77939;BME280;67136;47.546;21.630;2024-03-25T07:01:08;99070.84;;;7.76;79.70
77939;BME280;67136;47.546;21.630;2024-03-25T07:04:09;99072.97;;;8.28;77.61
77939;BME280;67136;47.546;21.630;2024-03-25T07:07:11;99071.06;;;9.11;74.14
77939;BME280;67136;47.546;21.630;2024-03-25T07:10:12;99074.84;;;8.99;72.51
77939;BME280;67136;47.546;21.630;2024-03-25T07:13:14;99073.22;;;8.71;73.95
77939;BME280;67136;47.546;21.630;2024-03-25T07:16:16;99080.38;;;9.66;70.50
77939;BME280;67136;47.546;21.630;2024-03-25T07:19:19;99079.59;;;9.91;68.08
77939;BME280;67136;47.546;21.630;2024-03-25T07:22:20;99079.88;;;10.91;65.53
77939;BME280;67136;47.546;21.630;2024-03-25T07:25:25;99083.44;;;11.32;63.17
77939;BME280;67136;47.546;21.630;2024-03-25T07:28:27;99092.03;;;11.82;61.16
77939;BME280;67136;47.546;21.630;2024-03-25T07:31:29;99091.47;;;11.54;61.06
77939;BME280;67136;47.546;21.630;2024-03-25T07:34:30;99101.34;;;12.16;58.56
77939;BME280;67136;47.546;21.630;2024-03-25T07:37:32;99091.78;;;11.27;60.51
77939;BME280;67136;47.546;21.630;2024-03-25T07:40:34;99099.63;;;11.27;60.54
77939;BME280;67136;47.546;21.630;2024-03-25T07:43:36;99106.72;;;11.51;58.41
77939;BME280;67136;47.546;21.630;2024-03-25T07:46:38;99105.56;;;11.61;57.71
77939;BME280;67136;47.546;21.630;2024-03-25T07:49:39;99108.94;;;11.38;57.31
77939;BME280;67136;47.546;21.630;2024-03-25T07:52:46;99107.28;;;11.20;57.67
77939;BME280;67136;47.546;21.630;2024-03-25T07:55:47;99109.53;;;12.13;56.11
77939;BME280;67136;47.546;21.630;2024-03-25T07:58:52;99106.91;;;12.29;54.86
77939;BME280;67136;47.546;21.630;2024-03-25T08:02:00;99097.75;;;12.17;54.21
77939;BME280;67136;47.546;21.630;2024-03-25T08:05:05;99094.00;;;13.21;51.14
77939;BME280;67136;47.546;21.630;2024-03-25T08:08:07;99105.00;;;12.70;50.75
77939;BME280;67136;47.546;21.630;2024-03-25T08:11:09;99105.44;;;13.28;49.32
77939;BME280;67136;47.546;21.630;2024-03-25T08:14:10;99093.16;;;13.74;46.85
77939;BME280;67136;47.546;21.630;2024-03-25T08:17:17;99099.47;;;13.12;47.55
77939;BME280;67136;47.546;21.630;2024-03-25T08:20:19;99098.34;;;14.56;46.03
77939;BME280;67136;47.546;21.630;2024-03-25T08:23:22;99099.13;;;15.65;42.84
77939;BME280;67136;47.546;21.630;2024-03-25T08:26:24;99100.53;;;15.68;42.95
77939;BME280;67136;47.546;21.630;2024-03-25T08:29:26;99109.84;;;16.55;41.22
77939;BME280;67136;47.546;21.630;2024-03-25T08:32:28;99105.25;;;14.86;42.84
77939;BME280;67136;47.546;21.630;2024-03-25T08:35:30;99107.13;;;16.48;41.12
77939;BME280;67136;47.546;21.630;2024-03-25T08:38:32;99112.81;;;16.03;40.16
77939;BME280;67136;47.546;21.630;2024-03-25T08:41:37;99117.69;;;17.77;37.57
77939;BME280;67136;47.546;21.630;2024-03-25T08:44:38;99109.94;;;17.15;38.73
77939;BME280;67136;47.546;21.630;2024-03-25T08:47:40;99104.72;;;15.41;40.69
77939;BME280;67136;47.546;21.630;2024-03-25T08:50:43;99106.97;;;16.50;39.65
77939;BME280;67136;47.546;21.630;2024-03-25T08:53:45;99107.97;;;15.79;40.87
77939;BME280;67136;47.546;21.630;2024-03-25T08:56:47;99106.28;;;16.75;39.07
77939;BME280;67136;47.546;21.630;2024-03-25T08:59:50;99110.94;;;16.18;40.04
77939;BME280;67136;47.546;21.630;2024-03-25T09:02:52;99107.09;;;17.77;36.64
77939;BME280;67136;47.546;21.630;2024-03-25T09:05:54;99109.00;;;16.05;38.66
77939;BME280;67136;47.546;21.630;2024-03-25T09:08:57;99112.72;;;17.48;36.68
77939;BME280;67136;47.546;21.630;2024-03-25T09:12:21;99110.78;;;17.95;35.51
77939;BME280;67136;47.546;21.630;2024-03-25T09:15:25;99119.22;;;16.15;36.59
77939;BME280;67136;47.546;21.630;2024-03-25T09:18:30;99113.56;;;18.98;33.08
77939;BME280;67136;47.546;21.630;2024-03-25T09:21:32;99109.37;;;18.25;35.40
77939;BME280;67136;47.546;21.630;2024-03-25T09:24:34;99111.66;;;18.48;34.00
77939;BME280;67136;47.546;21.630;2024-03-25T09:27:35;99113.56;;;17.55;35.24
77939;BME280;67136;47.546;21.630;2024-03-25T09:30:37;99107.31;;;17.82;34.07
77939;BME280;67136;47.546;21.630;2024-03-25T09:33:39;99106.66;;;18.84;32.77
77939;BME280;67136;47.546;21.630;2024-03-25T09:36:44;99105.06;;;17.66;33.82
77939;BME280;67136;47.546;21.630;2024-03-25T09:39:46;99108.13;;;18.21;33.18
77939;BME280;67136;47.546;21.630;2024-03-25T09:42:49;99107.06;;;15.72;35.67
77939;BME280;67136;47.546;21.630;2024-03-25T09:45:51;99105.56;;;15.13;38.74
77939;BME280;67136;47.546;21.630;2024-03-25T09:48:54;99106.69;;;17.80;34.88
77939;BME280;67136;47.546;21.630;2024-03-25T09:51:55;99107.13;;;18.68;33.21
77939;BME280;67136;47.546;21.630;2024-03-25T09:54:57;99093.66;;;17.65;33.72
77939;BME280;67136;47.546;21.630;2024-03-25T09:57:59;99091.25;;;15.72;35.73
77939;BME280;67136;47.546;21.630;2024-03-25T10:01:01;99096.44;;;14.13;39.88
77939;BME280;67136;47.546;21.630;2024-03-25T10:04:03;99094.37;;;14.23;38.82
77939;BME280;67136;47.546;21.630;2024-03-25T10:07:04;99096.03;;;15.62;35.70
77939;BME280;67136;47.546;21.630;2024-03-25T10:10:07;99089.06;;;16.79;33.66
77939;BME280;67136;47.546;21.630;2024-03-25T10:13:08;99094.69;;;19.26;31.94
77939;BME280;67136;47.546;21.630;2024-03-25T10:16:11;99086.41;;;16.79;34.04
77939;BME280;67136;47.546;21.630;2024-03-25T10:19:12;99088.75;;;15.85;35.83
77939;BME280;67136;47.546;21.630;2024-03-25T10:22:14;99093.53;;;16.85;35.26
77939;BME280;67136;47.546;21.630;2024-03-25T10:25:25;99093.78;;;15.09;38.08
77939;BME280;67136;47.546;21.630;2024-03-25T10:28:27;99096.53;;;14.42;40.18
77939;BME280;67136;47.546;21.630;2024-03-25T10:31:30;99087.84;;;14.56;40.24
77939;BME280;67136;47.546;21.630;2024-03-25T10:34:32;99095.00;;;16.94;36.14
77939;BME280;67136;47.546;21.630;2024-03-25T10:37:34;99101.91;;;20.19;30.96
77939;BME280;67136;47.546;21.630;2024-03-25T10:40:40;99102.00;;;19.43;30.69
77939;BME280;67136;47.546;21.630;2024-03-25T10:43:44;99096.56;;;18.22;33.66
77939;BME280;67136;47.546;21.630;2024-03-25T10:46:48;99087.97;;;17.08;34.39
77939;BME280;67136;47.546;21.630;2024-03-25T10:49:58;99100.59;;;18.31;33.30
77939;BME280;67136;47.546;21.630;2024-03-25T10:53:02;99085.09;;;20.25;31.07
77939;BME280;67136;47.546;21.630;2024-03-25T10:56:06;99087.94;;;17.49;33.01
77939;BME280;67136;47.546;21.630;2024-03-25T10:59:10;99094.47;;;20.70;30.37
77939;BME280;67136;47.546;21.630;2024-03-25T11:02:14;99085.16;;;17.96;33.78
77939;BME280;67136;47.546;21.630;2024-03-25T11:05:17;99087.13;;;19.73;31.86
77939;BME280;67136;47.546;21.630;2024-03-25T11:08:19;99093.34;;;20.17;31.58
77939;BME280;67136;47.546;21.630;2024-03-25T11:11:21;99087.97;;;21.38;29.34
77939;BME280;67136;47.546;21.630;2024-03-25T11:14:25;99084.38;;;19.55;31.42
77939;BME280;67136;47.546;21.630;2024-03-25T11:17:27;99095.28;;;18.71;32.84
77939;BME280;67136;47.546;21.630;2024-03-25T11:20:29;99097.94;;;22.13;27.88
77939;BME280;67136;47.546;21.630;2024-03-25T11:23:40;99088.47;;;24.27;24.62
77939;BME280;67136;47.546;21.630;2024-03-25T11:26:42;99083.09;;;23.66;25.72
77939;BME280;67136;47.546;21.630;2024-03-25T11:29:44;99074.91;;;18.78;31.66
77939;BME280;67136;47.546;21.630;2024-03-25T11:32:53;99087.06;;;22.27;27.41
77939;BME280;67136;47.546;21.630;2024-03-25T11:35:55;99065.56;;;17.58;33.62
77939;BME280;67136;47.546;21.630;2024-03-25T11:39:01;99067.94;;;19.71;31.58
77939;BME280;67136;47.546;21.630;2024-03-25T11:42:12;99057.47;;;17.66;32.73
77939;BME280;67136;47.546;21.630;2024-03-25T11:45:19;99059.50;;;19.06;29.78
77939;BME280;67136;47.546;21.630;2024-03-25T11:48:25;99068.50;;;20.54;27.26
77939;BME280;67136;47.546;21.630;2024-03-25T11:51:27;99050.09;;;20.10;29.71
77939;BME280;67136;47.546;21.630;2024-03-25T11:54:29;99050.22;;;23.21;24.74
77939;BME280;67136;47.546;21.630;2024-03-25T11:57:31;99053.69;;;22.82;25.80
77939;BME280;67136;47.546;21.630;2024-03-25T12:00:45;99053.81;;;17.93;31.88
77939;BME280;67136;47.546;21.630;2024-03-25T12:03:48;99056.03;;;22.21;26.47
77939;BME280;67136;47.546;21.630;2024-03-25T12:06:54;99054.44;;;25.21;22.27
77939;BME280;67136;47.546;21.630;2024-03-25T12:09:56;99053.56;;;25.90;21.69
77939;BME280;67136;47.546;21.630;2024-03-25T12:13:16;99062.41;;;22.66;23.82
77939;BME280;67136;47.546;21.630;2024-03-25T12:16:20;99061.53;;;23.00;23.97
77939;BME280;67136;47.546;21.630;2024-03-25T12:19:24;99052.62;;;23.62;23.09
77939;BME280;67136;47.546;21.630;2024-03-25T12:22:27;99044.69;;;18.98;29.80
77939;BME280;67136;47.546;21.630;2024-03-25T12:25:28;99042.41;;;18.44;30.73
77939;BME280;67136;47.546;21.630;2024-03-25T12:28:33;99039.91;;;17.38;32.37
77939;BME280;67136;47.546;21.630;2024-03-25T12:31:38;99055.06;;;23.80;24.14
77939;BME280;67136;47.546;21.630;2024-03-25T12:34:42;99065.41;;;25.99;20.85
77939;BME280;67136;47.546;21.630;2024-03-25T12:37:45;99066.59;;;26.08;20.83
77939;BME280;67136;47.546;21.630;2024-03-25T12:40:47;99070.00;;;29.97;18.36
77939;BME280;67136;47.546;21.630;2024-03-25T12:43:49;99054.78;;;28.25;19.34
77939;BME280;67136;47.546;21.630;2024-03-25T12:46:51;99049.59;;;29.37;17.82
77939;BME280;67136;47.546;21.630;2024-03-25T12:49:53;99059.19;;;32.50;16.08
77939;BME280;67136;47.546;21.630;2024-03-25T12:52:55;99038.91;;;24.03;22.93
77939;BME280;67136;47.546;21.630;2024-03-25T12:55:56;99049.13;;;27.81;19.19
77939;BME280;67136;47.546;21.630;2024-03-25T12:59:01;99038.47;;;26.11;21.43
77939;BME280;67136;47.546;21.630;2024-03-25T13:02:05;99041.06;;;22.08;25.67
77939;BME280;67136;47.546;21.630;2024-03-25T13:05:10;99035.09;;;18.14;31.47
77939;BME280;67136;47.546;21.630;2024-03-25T13:08:12;99033.47;;;17.93;32.19
77939;BME280;67136;47.546;21.630;2024-03-25T13:11:13;99033.09;;;20.78;27.56
77939;BME280;67136;47.546;21.630;2024-03-25T13:14:15;99016.28;;;17.30;33.08
77939;BME280;67136;47.546;21.630;2024-03-25T13:17:17;99027.94;;;18.34;31.08
77939;BME280;67136;47.546;21.630;2024-03-25T13:20:19;99017.66;;;16.26;34.70
77939;BME280;67136;47.546;21.630;2024-03-25T13:23:21;99010.06;;;21.49;25.07
77939;BME280;67136;47.546;21.630;2024-03-25T13:26:23;99032.28;;;26.52;19.56
77939;BME280;67136;47.546;21.630;2024-03-25T13:29:24;99036.00;;;29.57;16.37
77939;BME280;67136;47.546;21.630;2024-03-25T13:32:26;99030.84;;;27.53;18.02
77939;BME280;67136;47.546;21.630;2024-03-25T13:35:28;99040.22;;;30.64;16.31
77939;BME280;67136;47.546;21.630;2024-03-25T13:38:32;99036.25;;;29.99;15.35
77939;BME280;67136;47.546;21.630;2024-03-25T13:41:34;99031.19;;;25.00;18.94
77939;BME280;67136;47.546;21.630;2024-03-25T13:44:36;99044.84;;;26.46;18.20
77939;BME280;67136;47.546;21.630;2024-03-25T13:47:38;99028.84;;;27.08;17.62
77939;BME280;67136;47.546;21.630;2024-03-25T13:50:40;99028.50;;;24.40;19.84
77939;BME280;67136;47.546;21.630;2024-03-25T13:53:42;99019.88;;;20.11;24.22
77939;BME280;67136;47.546;21.630;2024-03-25T13:56:43;99017.31;;;16.69;28.80
77939;BME280;67136;47.546;21.630;2024-03-25T13:59:47;99022.44;;;18.35;27.21
77939;BME280;67136;47.546;21.630;2024-03-25T14:02:48;99015.00;;;18.83;26.25
77939;BME280;67136;47.546;21.630;2024-03-25T14:05:50;99026.88;;;20.48;25.51
77939;BME280;67136;47.546;21.630;2024-03-25T14:08:52;99012.56;;;19.19;26.36
77939;BME280;67136;47.546;21.630;2024-03-25T14:11:54;99029.38;;;23.46;22.20
77939;BME280;67136;47.546;21.630;2024-03-25T14:14:55;99015.16;;;17.79;28.80
77939;BME280;67136;47.546;21.630;2024-03-25T14:18:00;99028.59;;;23.06;22.96
77939;BME280;67136;47.546;21.630;2024-03-25T14:21:03;99037.03;;;27.78;18.04
77939;BME280;67136;47.546;21.630;2024-03-25T14:24:05;99038.28;;;21.50;23.97
77939;BME280;67136;47.546;21.630;2024-03-25T14:27:07;99037.03;;;22.05;24.95
77939;BME280;67136;47.546;21.630;2024-03-25T14:30:09;99044.00;;;23.04;23.48
77939;BME280;67136;47.546;21.630;2024-03-25T14:33:16;99033.81;;;20.49;26.54
77939;BME280;67136;47.546;21.630;2024-03-25T14:36:17;99047.69;;;22.52;25.01
77939;BME280;67136;47.546;21.630;2024-03-25T14:39:19;99053.00;;;22.05;25.01
77939;BME280;67136;47.546;21.630;2024-03-25T14:42:20;99054.13;;;24.03;22.89
77939;BME280;67136;47.546;21.630;2024-03-25T14:45:22;99056.87;;;23.07;23.55
77939;BME280;67136;47.546;21.630;2024-03-25T14:48:26;99060.44;;;22.27;24.54
77939;BME280;67136;47.546;21.630;2024-03-25T14:51:31;99042.94;;;19.86;27.37
77939;BME280;67136;47.546;21.630;2024-03-25T14:54:34;99047.25;;;18.28;30.65
77939;BME280;67136;47.546;21.630;2024-03-25T14:57:35;99035.78;;;18.80;29.55
77939;BME280;67136;47.546;21.630;2024-03-25T15:00:37;99042.69;;;17.17;31.93
77939;BME280;67136;47.546;21.630;2024-03-25T15:03:39;99049.03;;;16.14;35.91
77939;BME280;67136;47.546;21.630;2024-03-25T15:06:41;99048.16;;;15.23;39.03
77939;BME280;67136;47.546;21.630;2024-03-25T15:09:42;99066.84;;;18.20;34.70
77939;BME280;67136;47.546;21.630;2024-03-25T15:12:46;99066.69;;;18.92;33.00
77939;BME280;67136;47.546;21.630;2024-03-25T15:15:47;99074.84;;;17.40;34.95
77939;BME280;67136;47.546;21.630;2024-03-25T15:18:50;99085.38;;;18.14;33.98
77939;BME280;67136;47.546;21.630;2024-03-25T15:21:52;99059.94;;;14.91;38.92
77939;BME280;67136;47.546;21.630;2024-03-25T15:24:55;99073.66;;;17.43;34.79
77939;BME280;67136;47.546;21.630;2024-03-25T15:27:56;99083.53;;;16.74;35.78
77939;BME280;67136;47.546;21.630;2024-03-25T15:30:58;99071.84;;;17.44;34.21
77939;BME280;67136;47.546;21.630;2024-03-25T15:33:59;99062.03;;;14.95;37.60
77939;BME280;67136;47.546;21.630;2024-03-25T15:37:01;99071.50;;;14.61;38.79
77939;BME280;67136;47.546;21.630;2024-03-25T15:40:04;99066.44;;;16.36;36.51
77939;BME280;67136;47.546;21.630;2024-03-25T15:43:07;99081.75;;;19.49;31.09
77939;BME280;67136;47.546;21.630;2024-03-25T15:46:09;99079.91;;;19.49;30.74
77939;BME280;67136;47.546;21.630;2024-03-25T15:49:13;99086.22;;;20.96;28.01
77939;BME280;67136;47.546;21.630;2024-03-25T15:52:18;99098.66;;;22.78;25.76
77939;BME280;67136;47.546;21.630;2024-03-25T15:55:20;99085.69;;;20.02;28.17